Time;durP1;ratioP1;P1;durP2;ratioP2;P2;SDS_P1;SDS_P2;PMS_P1;PMS_P2;Temp;Humidity;BMP_temperature;BMP_pressure;BME280_temperature;BME280_humidity;BME280_pressure;Samples;Min_cycle;Max_cycle;Signal;HPM_P1;HPM_P2
2023/07/27 00:01:50;;;;;;;;;;;25.50;53.80;;;;;;5094752;28;20438;-53
2023/07/27 00:04:18;;;;;;;;;;;25.50;54.40;;;;;;5096708;28;19963;-52
2023/07/27 00:06:46;;;;;;;;;;;25.50;53.90;;;;;;5093204;28;20376;-50
2023/07/27 00:09:13;;;;;;;;;;;25.50;53.90;;;;;;5096104;28;19928;-48
2023/07/27 00:11:41;;;;;;;;;;;25.40;53.80;;;;;;5096125;28;19924;-54
2023/07/27 00:14:08;;;;;;;;;;;25.50;53.90;;;;;;5094908;28;19928;-52
2023/07/27 00:16:35;;;;;;;;;;;25.40;53.80;;;;;;5096535;28;20035;-49
2023/07/27 00:19:02;;;;;;;;;;;25.40;53.90;;;;;;5096083;28;19928;-48
2023/07/27 00:21:29;;;;;;;;;;;25.40;53.90;;;;;;5095998;28;20342;-52
2023/07/27 00:23:56;;;;;;;;;;;25.40;53.90;;;;;;5095884;28;20015;-54
2023/07/27 00:26:23;;;;;;;;;;;25.40;53.90;;;;;;5095946;28;19930;-55
2023/07/27 00:28:50;;;;;;;;;;;25.40;53.90;;;;;;5096092;28;19969;-55
2023/07/27 00:31:17;;;;;;;;;;;25.40;53.90;;;;;;5095264;28;19931;-54
2023/07/27 00:33:44;;;;;;;;;;;25.40;53.90;;;;;;5095774;28;19924;-55
2023/07/27 00:36:12;;;;;;;;;;;25.40;54.00;;;;;;5096213;28;19955;-54
2023/07/27 00:38:39;;;;;;;;;;;25.40;54.00;;;;;;5095653;28;20019;-55
2023/07/27 00:41:06;;;;;;;;;;;25.40;54.00;;;;;;5095727;28;20022;-55
2023/07/27 00:43:33;;;;;;;;;;;25.40;54.00;;;;;;5095981;28;19964;-49
2023/07/27 00:46:00;;;;;;;;;;;25.40;54.00;;;;;;5095638;28;19950;-53
2023/07/27 00:48:27;;;;;;;;;;;25.40;54.00;;;;;;5095744;28;19931;-55
2023/07/27 00:50:54;;;;;;;;;;;25.40;54.00;;;;;;5095465;28;20014;-55
2023/07/27 00:53:22;;;;;;;;;;;25.40;54.00;;;;;;5095423;28;20027;-51
2023/07/27 00:55:49;;;;;;;;;;;25.40;54.00;;;;;;5095560;28;19928;-54
2023/07/27 00:58:16;;;;;;;;;;;25.40;54.00;;;;;;5095241;28;19928;-54
2023/07/27 01:00:43;;;;;;;;;;;25.40;54.00;;;;;;5094826;28;20384;-54
2023/07/27 01:03:10;;;;;;;;;;;25.40;54.00;;;;;;5095367;28;20445;-55
2023/07/27 01:05:37;;;;;;;;;;;25.40;54.00;;;;;;5094995;28;19924;-53
2023/07/27 01:08:05;;;;;;;;;;;25.40;54.00;;;;;;5095466;28;20327;-55
2023/07/27 01:10:36;;;;;;;;;;;25.30;54.00;;;;;;5095155;28;20133;-53
2023/07/27 01:13:06;;;;;;;;;;;25.40;54.10;;;;;;5095148;28;19946;-51
2023/07/27 01:15:36;;;;;;;;;;;25.30;54.00;;;;;;5094875;28;20020;-54
2023/07/27 01:18:08;;;;;;;;;;;25.40;54.00;;;;;;5095353;28;19964;-53
2023/07/27 01:20:53;;;;;;;;;;;25.40;54.00;;;;;;5094376;28;20372;-55
2023/07/27 01:23:40;;;;;;;;;;;25.40;53.90;;;;;;5095472;28;19956;-53
2023/07/27 01:26:27;;;;;;;;;;;25.40;53.90;;;;;;5093877;28;20010;-51
2023/07/27 01:29:06;;;;;;;;;;;25.40;53.90;;;;;;5094822;28;19924;-54
2023/07/27 01:31:41;;;;;;;;;;;25.40;53.90;;;;;;5094776;28;19924;-53
2023/07/27 01:34:23;;;;;;;;;;;25.40;53.90;;;;;;5094607;28;19927;-54
2023/07/27 01:36:54;;;;;;;;;;;25.40;53.80;;;;;;5095034;28;19975;-54
2023/07/27 01:39:22;;;;;;;;;;;25.40;53.80;;;;;;5094405;28;19970;-53
2023/07/27 01:41:50;;;;;;;;;;;25.40;53.80;;;;;;5094471;28;20014;-53
2023/07/27 01:44:18;;;;;;;;;;;25.40;53.80;;;;;;5094703;28;20022;-49
2023/07/27 01:46:46;;;;;;;;;;;25.40;53.80;;;;;;5094463;28;20454;-53
2023/07/27 01:49:13;;;;;;;;;;;25.40;53.80;;;;;;5094434;28;19930;-55
2023/07/27 01:51:40;;;;;;;;;;;25.40;53.80;;;;;;5094027;28;20350;-55
2023/07/27 01:54:08;;;;;;;;;;;25.40;53.80;;;;;;5094153;28;20011;-56
2023/07/27 01:56:36;;;;;;;;;;;25.40;53.80;;;;;;5094373;28;19951;-55
2023/07/27 01:59:04;;;;;;;;;;;25.30;53.80;;;;;;5094194;28;19977;-53
2023/07/27 02:01:31;;;;;;;;;;;25.30;53.80;;;;;;5094366;28;20002;-53
2023/07/27 02:03:58;;;;;;;;;;;25.30;53.80;;;;;;5093608;28;19924;-55
2023/07/27 02:06:25;;;;;;;;;;;25.30;53.80;;;;;;5094166;28;19959;-52
2023/07/27 02:08:52;;;;;;;;;;;25.30;53.90;;;;;;5094127;28;19924;-54
2023/07/27 02:11:22;;;;;;;;;;;25.30;53.90;;;;;;5093868;28;19924;-55
2023/07/27 02:13:55;;;;;;;;;;;25.30;53.90;;;;;;5093703;28;19974;-55
2023/07/27 02:16:38;;;;;;;;;;;25.30;53.90;;;;;;5093963;28;19970;-53
2023/07/27 02:19:06;;;;;;;;;;;25.30;53.90;;;;;;5094298;28;20348;-51
2023/07/27 02:21:35;;;;;;;;;;;25.30;54.00;;;;;;5093786;28;20464;-54
2023/07/27 02:24:02;;;;;;;;;;;25.30;54.00;;;;;;5093974;28;19949;-54
2023/07/27 02:26:29;;;;;;;;;;;25.30;54.00;;;;;;5093969;28;20265;-55
2023/07/27 02:28:57;;;;;;;;;;;25.30;54.00;;;;;;5093848;28;19930;-55
2023/07/27 02:31:24;;;;;;;;;;;25.30;54.00;;;;;;5093853;28;19924;-55
2023/07/27 02:33:51;;;;;;;;;;;25.30;54.00;;;;;;5093858;28;19924;-55
2023/07/27 02:36:18;;;;;;;;;;;25.20;53.90;;;;;;5093672;28;20377;-54
2023/07/27 02:38:45;;;;;;;;;;;25.30;54.00;;;;;;5094001;28;19924;-53
2023/07/27 02:41:12;;;;;;;;;;;25.30;54.00;;;;;;5093764;28;20016;-50
2023/07/27 02:43:40;;;;;;;;;;;25.20;53.90;;;;;;5093095;28;20415;-52
2023/07/27 02:46:08;;;;;;;;;;;25.30;54.00;;;;;;5093342;28;19969;-54
2023/07/27 02:48:35;;;;;;;;;;;25.20;53.90;;;;;;5093530;28;20448;-53
2023/07/27 02:51:02;;;;;;;;;;;25.30;54.00;;;;;;5093585;28;20022;-49
2023/07/27 02:53:29;;;;;;;;;;;25.20;53.90;;;;;;5093500;28;20327;-55
2023/07/27 02:55:57;;;;;;;;;;;25.20;53.90;;;;;;5093726;28;19950;-49
2023/07/27 02:58:25;;;;;;;;;;;25.20;53.90;;;;;;5093365;28;20018;-52
2023/07/27 03:00:59;;;;;;;;;;;25.20;53.90;;;;;;5093195;28;20463;-55
2023/07/27 03:03:26;;;;;;;;;;;25.20;53.90;;;;;;5093131;28;20325;-55
2023/07/27 03:05:57;;;;;;;;;;;25.20;54.00;;;;;;5093095;28;20420;-54
2023/07/27 03:08:25;;;;;;;;;;;25.20;54.00;;;;;;5093271;28;20376;-55
2023/07/27 03:10:54;;;;;;;;;;;25.20;54.00;;;;;;5093238;28;19970;-55
2023/07/27 03:13:21;;;;;;;;;;;25.20;54.00;;;;;;5093323;28;19924;-51
2023/07/27 03:15:48;;;;;;;;;;;25.20;54.00;;;;;;5093029;28;20406;-54
2023/07/27 03:18:17;;;;;;;;;;;25.20;54.00;;;;;;5097340;28;20362;-55
2023/07/27 03:20:43;;;;;;;;;;;25.20;53.90;;;;;;5097580;28;19977;-55
2023/07/27 03:23:11;;;;;;;;;;;25.20;53.90;;;;;;5097197;28;19970;-53
2023/07/27 03:25:38;;;;;;;;;;;25.20;53.90;;;;;;5096940;28;19924;-55
2023/07/27 03:28:06;;;;;;;;;;;25.20;53.90;;;;;;5097134;28;20027;-55
2023/07/27 03:30:34;;;;;;;;;;;25.20;53.80;;;;;;5096977;28;19924;-55
2023/07/27 03:33:02;;;;;;;;;;;25.20;53.80;;;;;;5095640;28;19975;-55
2023/07/27 03:35:29;;;;;;;;;;;25.20;53.80;;;;;;5097046;28;19924;-54
2023/07/27 03:37:56;;;;;;;;;;;25.20;53.80;;;;;;5090634;28;19972;-52
2023/07/27 03:40:24;;;;;;;;;;;25.20;53.70;;;;;;5091455;28;20007;-55
2023/07/27 03:42:51;;;;;;;;;;;25.20;53.70;;;;;;5097050;28;19983;-54
2023/07/27 03:45:18;;;;;;;;;;;25.20;53.60;;;;;;5090115;28;19970;-53
2023/07/27 03:47:45;;;;;;;;;;;25.30;53.70;;;;;;5087016;28;19963;-55
2023/07/27 03:50:12;;;;;;;;;;;25.30;53.60;;;;;;5080209;28;19931;-54
2023/07/27 03:52:40;;;;;;;;;;;25.30;53.60;;;;;;5085224;28;19989;-55
2023/07/27 03:55:07;;;;;;;;;;;25.30;53.60;;;;;;5083757;28;19924;-54
2023/07/27 03:57:34;;;;;;;;;;;25.30;53.60;;;;;;5087223;28;19976;-55
2023/07/27 04:00:01;;;;;;;;;;;25.30;53.50;;;;;;5084164;28;19928;-51
2023/07/27 04:02:28;;;;;;;;;;;25.30;53.50;;;;;;5076197;28;20385;-54
2023/07/27 04:04:56;;;;;;;;;;;25.30;53.50;;;;;;5082151;28;19932;-55
2023/07/27 04:07:23;;;;;;;;;;;25.30;54.00;;;;;;5083263;28;20281;-52
2023/07/27 04:09:50;;;;;;;;;;;25.30;53.50;;;;;;5077189;28;20003;-55
2023/07/27 04:12:17;;;;;;;;;;;25.30;53.50;;;;;;5086009;28;20258;-57
2023/07/27 04:14:44;;;;;;;;;;;25.30;53.40;;;;;;5096110;28;19924;-55
2023/07/27 04:17:11;;;;;;;;;;;25.40;53.50;;;;;;5095879;28;19939;-54
2023/07/27 04:19:39;;;;;;;;;;;25.30;53.40;;;;;;5092527;28;19925;-54
2023/07/27 04:22:06;;;;;;;;;;;25.30;53.40;;;;;;5076209;28;19925;-54
2023/07/27 04:24:33;;;;;;;;;;;25.30;53.40;;;;;;5075585;28;19929;-54
2023/07/27 04:27:00;;;;;;;;;;;25.40;53.40;;;;;;5075279;28;19925;-55
2023/07/27 04:29:27;;;;;;;;;;;25.40;53.30;;;;;;5076140;28;19924;-55
2023/07/27 04:31:54;;;;;;;;;;;25.40;53.30;;;;;;5079535;28;19930;-53
2023/07/27 04:34:21;;;;;;;;;;;25.40;53.30;;;;;;5083175;28;19932;-58
2023/07/27 04:36:48;;;;;;;;;;;25.40;53.20;;;;;;5080720;28;19932;-55
2023/07/27 04:39:15;;;;;;;;;;;25.40;53.20;;;;;;5084067;28;20627;-55
2023/07/27 04:41:43;;;;;;;;;;;25.30;53.10;;;;;;5074835;28;19939;-54
2023/07/27 04:44:10;;;;;;;;;;;25.20;53.10;;;;;;5073474;28;20282;-55
2023/07/27 04:46:38;;;;;;;;;;;25.10;53.20;;;;;;5081904;28;19979;-53
2023/07/27 04:49:06;;;;;;;;;;;24.90;53.30;;;;;;5086109;28;19924;-51
2023/07/27 04:51:34;;;;;;;;;;;24.70;53.00;;;;;;5085606;28;20019;-51
2023/07/27 04:54:02;;;;;;;;;;;24.50;52.00;;;;;;5080565;28;19967;-50
2023/07/27 04:56:29;;;;;;;;;;;24.20;51.40;;;;;;5083780;28;19924;-53
2023/07/27 04:58:56;;;;;;;;;;;23.90;50.70;;;;;;5086097;28;19925;-55
2023/07/27 05:01:22;;;;;;;;;;;23.60;50.20;;;;;;5083267;28;20319;-55
2023/07/27 05:03:51;;;;;;;;;;;23.20;50.00;;;;;;5080649;28;19925;-51
2023/07/27 05:06:18;;;;;;;;;;;22.90;50.00;;;;;;5087818;28;19935;-55
2023/07/27 05:08:45;;;;;;;;;;;22.50;50.10;;;;;;5079124;28;19931;-54
2023/07/27 05:11:12;;;;;;;;;;;22.20;50.50;;;;;;5081448;28;20033;-51
2023/07/27 05:13:39;;;;;;;;;;;22.00;50.80;;;;;;5079941;28;19924;-51
2023/07/27 05:16:07;;;;;;;;;;;21.70;51.80;;;;;;5081388;28;19982;-51
2023/07/27 05:18:34;;;;;;;;;;;21.50;51.70;;;;;;5075169;28;19925;-55
2023/07/27 05:21:01;;;;;;;;;;;21.30;52.30;;;;;;5079745;28;20053;-60
2023/07/27 05:23:28;;;;;;;;;;;21.10;53.20;;;;;;5074076;28;20020;-58
2023/07/27 05:25:55;;;;;;;;;;;21.00;53.40;;;;;;5073130;28;20468;-57
2023/07/27 05:28:22;;;;;;;;;;;20.90;52.50;;;;;;5071098;28;19946;-59
2023/07/27 05:30:49;;;;;;;;;;;20.80;52.30;;;;;;5074224;28;19932;-59
2023/07/27 05:33:16;;;;;;;;;;;20.70;52.50;;;;;;5077268;28;19939;-59
2023/07/27 05:35:49;;;;;;;;;;;20.60;52.30;;;;;;5066151;28;19933;-61
2023/07/27 05:38:19;;;;;;;;;;;20.50;52.10;;;;;;5069450;28;19932;-61
2023/07/27 05:40:46;;;;;;;;;;;20.40;52.00;;;;;;5065839;28;19984;-61
2023/07/27 05:43:13;;;;;;;;;;;20.20;52.50;;;;;;5073271;28;19933;-61
2023/07/27 05:45:40;;;;;;;;;;;20.10;52.60;;;;;;5068361;28;19924;-61
2023/07/27 05:48:07;;;;;;;;;;;20.00;53.00;;;;;;5073900;28;19932;-59
2023/07/27 05:50:35;;;;;;;;;;;19.90;53.50;;;;;;5072432;28;19928;-63
2023/07/27 05:53:02;;;;;;;;;;;19.80;52.40;;;;;;5075665;28;19967;-62
2023/07/27 05:55:29;;;;;;;;;;;19.70;52.70;;;;;;5076921;28;19925;-61
2023/07/27 05:57:56;;;;;;;;;;;19.60;53.50;;;;;;5067598;28;20011;-62
2023/07/27 06:00:32;;;;;;;;;;;19.50;53.80;;;;;;5076378;28;19924;-62
2023/07/27 06:02:59;;;;;;;;;;;19.40;53.30;;;;;;5074487;28;20015;-63
2023/07/27 06:05:26;;;;;;;;;;;19.30;54.30;;;;;;5069244;28;20577;-61
2023/07/27 06:07:53;;;;;;;;;;;19.40;54.40;;;;;;5070623;28;20024;-61
2023/07/27 06:10:20;;;;;;;;;;;19.30;54.30;;;;;;5077242;28;20020;-61
2023/07/27 06:12:47;;;;;;;;;;;19.30;53.70;;;;;;5073997;28;20291;-61
2023/07/27 06:15:14;;;;;;;;;;;19.20;54.60;;;;;;5070422;28;20031;-60
2023/07/27 06:17:41;;;;;;;;;;;19.20;54.70;;;;;;5075007;28;19934;-60
2023/07/27 06:20:08;;;;;;;;;;;19.20;54.10;;;;;;5073997;28;19932;-58
2023/07/27 06:22:35;;;;;;;;;;;19.20;54.70;;;;;;5072218;28;19932;-60
2023/07/27 06:25:03;;;;;;;;;;;19.30;54.90;;;;;;5080798;28;20030;-58
2023/07/27 06:27:30;;;;;;;;;;;19.40;54.10;;;;;;5069016;28;19928;-59
2023/07/27 06:29:57;;;;;;;;;;;19.40;54.00;;;;;;5075299;28;20150;-58
2023/07/27 06:32:24;;;;;;;;;;;19.40;54.70;;;;;;5073695;28;19928;-60
2023/07/27 06:34:51;;;;;;;;;;;19.40;54.20;;;;;;5071921;28;19975;-59
2023/07/27 06:37:19;;;;;;;;;;;19.50;53.80;;;;;;5075924;28;20009;-59
2023/07/27 06:39:46;;;;;;;;;;;19.50;53.90;;;;;;5067750;28;20389;-58
2023/07/27 06:42:13;;;;;;;;;;;19.40;54.10;;;;;;5069950;28;19936;-59
2023/07/27 06:44:40;;;;;;;;;;;19.50;53.50;;;;;;5068452;28;19932;-58
2023/07/27 06:47:07;;;;;;;;;;;19.50;53.40;;;;;;5058020;28;19999;-58
2023/07/27 06:49:34;;;;;;;;;;;19.50;54.10;;;;;;5074067;28;20049;-58
2023/07/27 06:52:01;;;;;;;;;;;19.50;53.50;;;;;;5071396;28;20211;-59
2023/07/27 06:54:29;;;;;;;;;;;19.50;52.90;;;;;;5069568;28;19932;-58
2023/07/27 06:56:56;;;;;;;;;;;19.50;53.80;;;;;;5073180;28;19960;-57
2023/07/27 06:59:22;;;;;;;;;;;19.50;53.80;;;;;;5075907;28;20722;-55
2023/07/27 07:01:51;;;;;;;;;;;19.50;53.30;;;;;;5073996;28;20319;-59
2023/07/27 07:04:18;;;;;;;;;;;19.50;53.50;;;;;;5070535;28;20403;-60
2023/07/27 07:06:45;;;;;;;;;;;19.50;54.00;;;;;;5064297;28;19939;-60
2023/07/27 07:09:12;;;;;;;;;;;19.50;53.60;;;;;;5067502;28;20017;-58
2023/07/27 07:11:39;;;;;;;;;;;19.40;53.60;;;;;;5068420;28;19924;-65
2023/07/27 07:14:07;;;;;;;;;;;19.40;53.50;;;;;;5069975;28;19928;-60
2023/07/27 07:16:33;;;;;;;;;;;19.40;53.30;;;;;;5071923;28;19924;-59
2023/07/27 07:19:01;;;;;;;;;;;19.40;52.90;;;;;;5072390;28;20269;-59
2023/07/27 07:21:28;;;;;;;;;;;19.40;53.50;;;;;;5071856;28;19939;-63
2023/07/27 07:23:55;;;;;;;;;;;19.40;53.30;;;;;;5075541;28;20018;-59
2023/07/27 07:26:22;;;;;;;;;;;19.40;52.90;;;;;;5070831;28;19943;-62
2023/07/27 07:28:49;;;;;;;;;;;19.40;54.00;;;;;;5072533;28;20384;-59
2023/07/27 07:31:16;;;;;;;;;;;19.40;54.00;;;;;;5068130;28;19961;-63
2023/07/27 07:33:43;;;;;;;;;;;19.30;53.40;;;;;;5075032;28;19943;-58
2023/07/27 07:36:10;;;;;;;;;;;19.40;53.20;;;;;;5076722;28;19994;-60
2023/07/27 07:38:37;;;;;;;;;;;19.40;53.00;;;;;;5073314;28;19990;-67
2023/07/27 07:41:04;;;;;;;;;;;19.40;53.00;;;;;;5071153;28;19924;-62
2023/07/27 07:43:34;;;;;;;;;;;19.40;52.80;;;;;;5068426;28;19993;-60
2023/07/27 07:46:01;;;;;;;;;;;19.30;53.20;;;;;;5068366;28;21006;-60
2023/07/27 07:48:28;;;;;;;;;;;19.30;53.20;;;;;;5070463;28;19932;-60
2023/07/27 07:50:57;;;;;;;;;;;19.30;53.20;;;;;;5072595;28;19929;-59
2023/07/27 07:53:24;;;;;;;;;;;19.30;53.30;;;;;;5071477;28;19935;-58
2023/07/27 07:56:01;;;;;;;;;;;19.30;53.20;;;;;;5071543;28;19986;-59
2023/07/27 07:58:28;;;;;;;;;;;19.30;52.90;;;;;;5076427;28;19924;-59
2023/07/27 08:00:55;;;;;;;;;;;19.30;52.90;;;;;;5071068;28;20347;-60
2023/07/27 08:03:22;;;;;;;;;;;19.30;53.10;;;;;;5071735;28;19978;-59
2023/07/27 08:05:49;;;;;;;;;;;19.30;52.80;;;;;;5073176;28;19939;-60
2023/07/27 08:08:16;;;;;;;;;;;19.30;52.70;;;;;;5072985;28;19982;-59
2023/07/27 08:10:43;;;;;;;;;;;19.30;52.70;;;;;;5075098;28;19924;-58
2023/07/27 08:13:11;;;;;;;;;;;19.30;52.50;;;;;;5073218;28;19960;-59
2023/07/27 08:15:38;;;;;;;;;;;19.30;52.40;;;;;;5070403;28;20035;-60
2023/07/27 08:18:04;;;;;;;;;;;19.30;52.70;;;;;;5075680;28;20384;-60
2023/07/27 08:20:32;;;;;;;;;;;19.30;52.80;;;;;;5076750;28;19956;-59
2023/07/27 08:22:59;;;;;;;;;;;19.30;52.80;;;;;;5072973;28;19970;-59
2023/07/27 08:25:26;;;;;;;;;;;19.30;52.80;;;;;;5072366;28;19985;-59
2023/07/27 08:27:53;;;;;;;;;;;19.30;52.70;;;;;;5073918;28;19928;-56
2023/07/27 08:30:20;;;;;;;;;;;19.30;52.80;;;;;;5077204;28;19971;-58
2023/07/27 08:32:47;;;;;;;;;;;19.30;52.70;;;;;;5075064;28;19932;-61
2023/07/27 08:35:14;;;;;;;;;;;19.30;52.80;;;;;;5069379;28;19932;-59
2023/07/27 08:37:42;;;;;;;;;;;19.30;52.80;;;;;;5068855;28;19929;-59
2023/07/27 08:40:10;;;;;;;;;;;19.30;52.80;;;;;;5077216;28;19925;-59
2023/07/27 08:42:37;;;;;;;;;;;19.30;53.20;;;;;;5077237;28;20020;-59
2023/07/27 08:45:05;;;;;;;;;;;19.30;53.20;;;;;;5080718;28;20019;-56
2023/07/27 08:47:33;;;;;;;;;;;19.30;53.20;;;;;;5079091;28;19928;-59
2023/07/27 08:50:01;;;;;;;;;;;19.30;53.40;;;;;;5075667;28;19924;-59
2023/07/27 08:52:29;;;;;;;;;;;19.30;53.50;;;;;;5076341;28;19940;-59
2023/07/27 08:54:56;;;;;;;;;;;19.30;53.80;;;;;;5079741;28;19936;-60
2023/07/27 08:57:23;;;;;;;;;;;19.30;53.90;;;;;;5073792;28;19928;-58
2023/07/27 08:59:50;;;;;;;;;;;19.40;54.10;;;;;;5072829;28;19967;-60
2023/07/27 09:02:18;;;;;;;;;;;19.40;54.00;;;;;;5075520;28;19924;-58
2023/07/27 09:04:45;;;;;;;;;;;19.50;54.00;;;;;;5077432;28;19943;-58
2023/07/27 09:07:12;;;;;;;;;;;19.50;54.20;;;;;;5077263;28;20389;-58
2023/07/27 09:09:40;;;;;;;;;;;19.50;54.10;;;;;;5073544;28;19928;-58
2023/07/27 09:12:07;;;;;;;;;;;19.50;54.20;;;;;;5074159;28;19978;-58
2023/07/27 09:14:38;;;;;;;;;;;19.50;54.40;;;;;;5073491;28;20015;-56
2023/07/27 09:17:07;;;;;;;;;;;19.50;54.50;;;;;;5076098;28;19928;-58
2023/07/27 09:19:38;;;;;;;;;;;19.60;54.60;;;;;;5072068;28;19983;-55
2023/07/27 09:22:05;;;;;;;;;;;19.60;54.60;;;;;;5070918;28;20444;-61
2023/07/27 09:24:32;;;;;;;;;;;19.60;54.50;;;;;;5071166;28;20015;-56
2023/07/27 09:27:01;;;;;;;;;;;19.70;54.70;;;;;;5072849;28;20394;-60
2023/07/27 09:29:28;;;;;;;;;;;19.70;54.60;;;;;;5075517;28;20444;-58
2023/07/27 09:32:00;;;;;;;;;;;19.70;54.40;;;;;;5073427;28;19929;-61
2023/07/27 09:34:28;;;;;;;;;;;19.80;54.30;;;;;;5077298;28;20051;-61
2023/07/27 09:36:56;;;;;;;;;;;19.80;54.60;;;;;;5072344;28;19928;-60
2023/07/27 09:39:26;;;;;;;;;;;19.80;54.60;;;;;;5069268;28;20020;-61
2023/07/27 09:41:54;;;;;;;;;;;19.80;54.40;;;;;;5067901;28;20381;-57
2023/07/27 09:44:24;;;;;;;;;;;19.90;54.40;;;;;;5075803;28;19982;-59
2023/07/27 09:46:51;;;;;;;;;;;19.90;54.40;;;;;;5074307;28;19924;-57
2023/07/27 09:49:18;;;;;;;;;;;19.90;54.50;;;;;;5080786;28;20415;-60
2023/07/27 09:51:46;;;;;;;;;;;19.90;54.40;;;;;;5083580;28;19982;-59
2023/07/27 09:54:14;;;;;;;;;;;19.90;54.70;;;;;;5077620;28;19928;-57
2023/07/27 09:56:41;;;;;;;;;;;20.00;54.90;;;;;;5075843;28;20018;-60
2023/07/27 09:59:08;;;;;;;;;;;20.00;54.40;;;;;;5086914;28;19946;-60
2023/07/27 10:01:35;;;;;;;;;;;20.00;54.60;;;;;;5083140;28;19978;-60
2023/07/27 10:04:03;;;;;;;;;;;20.00;54.30;;;;;;5075681;28;20143;-56
2023/07/27 10:06:30;;;;;;;;;;;20.00;54.10;;;;;;5076359;28;20019;-59
2023/07/27 10:08:59;;;;;;;;;;;20.00;54.10;;;;;;5068655;28;19992;-59
2023/07/27 10:11:30;;;;;;;;;;;20.00;54.00;;;;;;5076307;28;19924;-59
2023/07/27 10:14:15;;;;;;;;;;;19.90;53.80;;;;;;5080043;28;19927;-58
2023/07/27 10:16:56;;;;;;;;;;;19.90;53.90;;;;;;5077779;28;19924;-56
2023/07/27 10:19:24;;;;;;;;;;;19.90;53.70;;;;;;5080148;28;19971;-59
2023/07/27 10:21:51;;;;;;;;;;;19.90;54.10;;;;;;5076414;28;20400;-59
2023/07/27 10:24:23;;;;;;;;;;;19.80;53.70;;;;;;5071985;28;19982;-59
2023/07/27 10:26:51;;;;;;;;;;;19.80;53.60;;;;;;5083458;28;19924;-58
2023/07/27 10:29:19;;;;;;;;;;;19.80;53.40;;;;;;5077949;28;19932;-58
2023/07/27 10:32:04;;;;;;;;;;;19.80;53.60;;;;;;5073174;28;19932;-57
2023/07/27 10:34:32;;;;;;;;;;;19.80;53.50;;;;;;5073403;28;20349;-60
2023/07/27 10:37:08;;;;;;;;;;;19.80;53.40;;;;;;5075490;28;20016;-60
2023/07/27 10:39:47;;;;;;;;;;;19.80;53.40;;;;;;5075964;28;20015;-58
2023/07/27 10:42:16;;;;;;;;;;;19.80;53.40;;;;;;5070500;28;19932;-59
2023/07/27 10:44:54;;;;;;;;;;;19.80;53.60;;;;;;5078720;28;22158;-59
2023/07/27 10:47:25;;;;;;;;;;;19.80;53.20;;;;;;5074517;28;19960;-56
2023/07/27 10:49:53;;;;;;;;;;;19.80;53.40;;;;;;5073876;28;19963;-59
2023/07/27 10:52:21;;;;;;;;;;;19.80;53.40;;;;;;5075203;28;19943;-59
2023/07/27 10:54:49;;;;;;;;;;;19.80;53.40;;;;;;5065713;28;19994;-59
2023/07/27 10:57:17;;;;;;;;;;;19.80;53.40;;;;;;5070989;28;19936;-59
2023/07/27 10:59:45;;;;;;;;;;;19.90;53.80;;;;;;5077117;28;19932;-58
2023/07/27 11:02:18;;;;;;;;;;;19.90;53.90;;;;;;5069606;28;20254;-59
2023/07/27 11:04:45;;;;;;;;;;;20.00;53.70;;;;;;5075604;28;20019;-59
2023/07/27 11:07:13;;;;;;;;;;;20.00;53.30;;;;;;5072088;28;19939;-56
2023/07/27 11:09:44;;;;;;;;;;;20.00;53.30;;;;;;5071861;28;20026;-58
2023/07/27 11:12:11;;;;;;;;;;;20.00;53.20;;;;;;5074019;28;20381;-59
2023/07/27 11:14:38;;;;;;;;;;;20.00;53.10;;;;;;5077368;28;19986;-59
2023/07/27 11:17:05;;;;;;;;;;;20.00;52.90;;;;;;5068550;28;20446;-57
2023/07/27 11:19:33;;;;;;;;;;;20.00;52.60;;;;;;5073953;28;19928;-57
2023/07/27 11:22:00;;;;;;;;;;;20.00;52.60;;;;;;5075226;28;20011;-55
2023/07/27 11:24:27;;;;;;;;;;;20.00;52.70;;;;;;5070413;28;19928;-62
2023/07/27 11:26:54;;;;;;;;;;;20.00;52.50;;;;;;5077082;28;20537;-56
2023/07/27 11:29:22;;;;;;;;;;;20.00;52.40;;;;;;5073763;28;20380;-58
2023/07/27 11:31:51;;;;;;;;;;;20.00;52.60;;;;;;5077120;28;19924;-54
2023/07/27 11:34:20;;;;;;;;;;;19.90;52.60;;;;;;5075239;28;19939;-58
2023/07/27 11:36:50;;;;;;;;;;;20.00;52.80;;;;;;5075526;28;19932;-58
2023/07/27 11:39:17;;;;;;;;;;;20.10;53.00;;;;;;5074210;28;19924;-58
2023/07/27 11:41:44;;;;;;;;;;;20.00;53.10;;;;;;5087844;28;19971;-58
2023/07/27 11:44:15;;;;;;;;;;;20.10;53.40;;;;;;5072965;28;19933;-59
2023/07/27 11:46:46;;;;;;;;;;;20.10;53.00;;;;;;5075567;28;19928;-59
2023/07/27 11:49:14;;;;;;;;;;;20.10;52.80;;;;;;5073263;28;20014;-59
2023/07/27 11:51:41;;;;;;;;;;;20.10;52.50;;;;;;5078455;28;20019;-58
2023/07/27 11:54:09;;;;;;;;;;;20.10;52.40;;;;;;5074084;28;20373;-60
2023/07/27 11:56:36;;;;;;;;;;;20.20;52.10;;;;;;5078381;28;20696;-59
2023/07/27 11:59:05;;;;;;;;;;;20.20;52.10;;;;;;5073460;28;20107;-60
2023/07/27 12:01:35;;;;;;;;;;;20.20;51.90;;;;;;5076227;28;19972;-60
2023/07/27 12:04:07;;;;;;;;;;;20.20;51.80;;;;;;5073985;28;19924;-58
2023/07/27 12:06:34;;;;;;;;;;;20.20;51.70;;;;;;5074957;28;19932;-62
2023/07/27 12:09:04;;;;;;;;;;;20.20;51.60;;;;;;5079859;28;19974;-58
2023/07/27 12:11:31;;;;;;;;;;;20.30;51.80;;;;;;5077150;28;19932;-57
2023/07/27 12:14:07;;;;;;;;;;;20.20;51.80;;;;;;5080034;28;19932;-56
2023/07/27 12:16:39;;;;;;;;;;;20.30;52.00;;;;;;5076412;28;19924;-60
2023/07/27 12:19:08;;;;;;;;;;;20.30;52.10;;;;;;5080504;28;20297;-60
2023/07/27 12:21:36;;;;;;;;;;;20.20;52.10;;;;;;5070267;28;19924;-56
2023/07/27 12:24:08;;;;;;;;;;;20.20;52.10;;;;;;5076370;28;19999;-59
2023/07/27 12:26:38;;;;;;;;;;;20.30;52.40;;;;;;5078044;28;20288;-57
2023/07/27 12:29:08;;;;;;;;;;;20.20;52.50;;;;;;5076804;28;19960;-58
2023/07/27 12:31:37;;;;;;;;;;;20.10;52.60;;;;;;5070964;28;21536;-60
2023/07/27 12:34:07;;;;;;;;;;;20.10;52.80;;;;;;5076376;28;19939;-55
2023/07/27 12:36:34;;;;;;;;;;;20.10;52.80;;;;;;5072494;28;20031;-60
2023/07/27 12:39:01;;;;;;;;;;;20.10;52.90;;;;;;5080066;28;19989;-60
2023/07/27 12:41:28;;;;;;;;;;;20.20;53.20;;;;;;5075226;28;19967;-56
2023/07/27 12:43:56;;;;;;;;;;;20.20;53.10;;;;;;5076997;28;20368;-60
2023/07/27 12:46:23;;;;;;;;;;;20.30;52.90;;;;;;5074321;28;20028;-59
2023/07/27 12:48:52;;;;;;;;;;;20.30;52.80;;;;;;5074915;28;19967;-59
2023/07/27 12:51:18;;;;;;;;;;;20.40;52.70;;;;;;5075229;28;19963;-60
2023/07/27 12:53:45;;;;;;;;;;;20.40;52.70;;;;;;5083487;28;20448;-59
2023/07/27 12:56:12;;;;;;;;;;;20.40;52.60;;;;;;5077279;28;19964;-59
2023/07/27 12:58:39;;;;;;;;;;;20.30;52.80;;;;;;5075381;28;19924;-59
2023/07/27 13:01:07;;;;;;;;;;;20.30;52.60;;;;;;5071322;28;20007;-59
2023/07/27 13:03:34;;;;;;;;;;;20.40;52.80;;;;;;5076092;28;19935;-57
2023/07/27 13:06:02;;;;;;;;;;;20.40;52.60;;;;;;5074782;28;20369;-57
2023/07/27 13:08:29;;;;;;;;;;;20.40;52.70;;;;;;5076872;28;21169;-59
2023/07/27 13:10:56;;;;;;;;;;;20.40;52.60;;;;;;5077116;28;19943;-55
2023/07/27 13:13:24;;;;;;;;;;;20.40;52.80;;;;;;5072696;28;20289;-56
2023/07/27 13:15:51;;;;;;;;;;;20.50;52.80;;;;;;5080318;28;20294;-53
2023/07/27 13:18:18;;;;;;;;;;;20.50;52.70;;;;;;5080708;28;20284;-56
2023/07/27 13:20:45;;;;;;;;;;;20.50;52.80;;;;;;5074614;28;20022;-58
2023/07/27 13:23:12;;;;;;;;;;;20.50;53.10;;;;;;5073117;28;20017;-57
2023/07/27 13:25:39;;;;;;;;;;;20.50;53.00;;;;;;5077479;28;19967;-56
2023/07/27 13:28:06;;;;;;;;;;;20.50;53.20;;;;;;5073495;28;19932;-57
2023/07/27 13:30:33;;;;;;;;;;;20.50;53.30;;;;;;5071796;28;19924;-56
2023/07/27 13:33:01;;;;;;;;;;;20.50;53.30;;;;;;5087914;28;19989;-56
2023/07/27 13:35:28;;;;;;;;;;;20.50;53.50;;;;;;5075950;28;19942;-58
2023/07/27 13:37:57;;;;;;;;;;;20.50;53.70;;;;;;5072312;28;19925;-56
2023/07/27 13:40:24;;;;;;;;;;;20.50;53.80;;;;;;5077597;28;19928;-58
2023/07/27 13:42:52;;;;;;;;;;;20.50;53.80;;;;;;5077891;28;19932;-52
2023/07/27 13:45:19;;;;;;;;;;;20.50;53.80;;;;;;5082740;28;19925;-52
2023/07/27 13:47:46;;;;;;;;;;;20.50;53.80;;;;;;5073039;28;19924;-52
2023/07/27 13:50:32;;;;;;;;;;;20.50;53.80;;;;;;5074572;28;19932;-51
2023/07/27 13:52:59;;;;;;;;;;;20.60;53.90;;;;;;5075810;28;19931;-53
2023/07/27 13:55:26;;;;;;;;;;;20.60;53.80;;;;;;5074604;28;19924;-54
2023/07/27 13:57:53;;;;;;;;;;;20.50;53.80;;;;;;5080735;28;20305;-53
2023/07/27 14:00:21;;;;;;;;;;;20.50;53.80;;;;;;5069935;28;19934;-53
2023/07/27 14:02:48;;;;;;;;;;;20.60;54.30;;;;;;5072859;28;19935;-50
2023/07/27 14:05:16;;;;;;;;;;;20.70;60.00;;;;;;5072136;28;20471;-53
2023/07/27 14:07:43;;;;;;;;;;;20.90;61.00;;;;;;5074080;28;19997;-51
2023/07/27 14:10:11;;;;;;;;;;;21.30;62.50;;;;;;5076184;28;19925;-52
2023/07/27 14:12:40;;;;;;;;;;;21.60;63.50;;;;;;5074264;28;20291;-51
2023/07/27 14:15:07;;;;;;;;;;;21.90;63.30;;;;;;5068873;28;19928;-49
2023/07/27 14:17:34;;;;;;;;;;;22.30;62.80;;;;;;5071362;28;19931;-52
2023/07/27 14:20:01;;;;;;;;;;;22.60;62.50;;;;;;5071467;28;19928;-48
2023/07/27 14:22:34;;;;;;;;;;;22.80;62.00;;;;;;5073284;28;19932;-50